Time;durP1;ratioP1;P1;durP2;ratioP2;P2;SDS_P1;SDS_P2;PMS_P1;PMS_P2;Temp;Humidity;BMP_temperature;BMP_pressure;BME280_temperature;BME280_humidity;BME280_pressure;Samples;Min_cycle;Max_cycle;Signal;HPM_P1;HPM_P2
2022/07/01 00:02:07;;;;;;;4.22;2.22;;;19.70;98.80;;;;;;5017701;28;20033;-81
2022/07/01 00:04:33;;;;;;;3.70;2.53;;;19.70;99.00;;;;;;5037149;28;20030;-82
2022/07/01 00:06:59;;;;;;;6.45;3.13;;;19.80;99.30;;;;;;5037462;28;20021;-82
2022/07/01 00:09:24;;;;;;;4.72;3.03;;;19.80;99.70;;;;;;5038824;28;20065;-82
2022/07/01 00:11:50;;;;;;;4.90;3.00;;;19.80;99.90;;;;;;5042782;28;20038;-83
2022/07/01 00:14:16;;;;;;;8.55;3.65;;;19.80;99.90;;;;;;5047483;28;20036;-82
2022/07/01 00:16:42;;;;;;;8.90;3.90;;;19.80;99.90;;;;;;5041082;28;20047;-81
2022/07/01 00:19:07;;;;;;;6.10;3.20;;;19.80;99.90;;;;;;5026459;28;20040;-82
2022/07/01 00:21:33;;;;;;;6.93;3.67;;;19.80;99.90;;;;;;5025025;28;20089;-82
2022/07/01 00:23:59;;;;;;;4.72;3.30;;;19.90;99.90;;;;;;5024105;28;20026;-82
2022/07/01 00:26:25;;;;;;;5.22;3.38;;;19.90;99.70;;;;;;5022982;28;20026;-81
2022/07/01 00:28:51;;;;;;;3.25;2.95;;;19.90;99.70;;;;;;5005815;28;20200;-82
2022/07/01 00:31:17;;;;;;;4.88;3.45;;;19.90;99.30;;;;;;5025879;28;20094;-82
2022/07/01 00:33:42;;;;;;;5.57;3.30;;;19.80;99.30;;;;;;5045122;28;20013;-81
2022/07/01 00:36:08;;;;;;;7.35;3.05;;;19.80;99.40;;;;;;5026722;28;20021;-81
2022/07/01 00:38:34;;;;;;;3.15;2.90;;;19.80;99.10;;;;;;5052547;28;20014;-80
2022/07/01 00:41:00;;;;;;;6.28;2.45;;;19.90;98.70;;;;;;5055634;28;20037;-80
2022/07/01 00:43:25;;;;;;;4.10;2.50;;;19.80;98.40;;;;;;5054866;28;20033;-80
2022/07/01 00:45:52;;;;;;;3.58;2.72;;;19.90;97.90;;;;;;5039728;28;20053;-81
2022/07/01 00:48:20;;;;;;;4.82;2.90;;;19.80;98.00;;;;;;5023028;28;20093;-82
2022/07/01 00:50:47;;;;;;;5.13;2.38;;;19.80;97.60;;;;;;5022851;28;20046;-81
2022/07/01 00:53:14;;;;;;;3.70;2.28;;;19.70;97.70;;;;;;5031869;28;20036;-82
2022/07/01 00:55:40;;;;;;;6.45;2.35;;;19.60;98.00;;;;;;5043154;28;20032;-82
2022/07/01 00:58:07;;;;;;;3.35;1.70;;;19.60;97.50;;;;;;5049477;28;20398;-83
2022/07/01 01:00:33;;;;;;;2.60;1.70;;;19.60;97.10;;;;;;5030596;28;20029;-82
2022/07/01 01:02:59;;;;;;;4.65;2.15;;;19.50;96.70;;;;;;5030106;28;20028;-81
2022/07/01 01:05:25;;;;;;;6.00;1.67;;;19.60;96.10;;;;;;5045414;28;20053;-81
2022/07/01 01:07:51;;;;;;;3.13;1.60;;;19.60;95.60;;;;;;5046453;28;20033;-81
2022/07/01 01:10:18;;;;;;;5.35;1.73;;;19.60;95.60;;;;;;5048609;28;20081;-81
2022/07/01 01:12:44;;;;;;;3.72;1.30;;;19.60;94.90;;;;;;5038796;28;20053;-82
2022/07/01 01:15:10;;;;;;;1.58;1.30;;;19.60;95.00;;;;;;5026264;28;20034;-82
2022/07/01 01:17:37;;;;;;;7.63;1.17;;;19.70;94.30;;;;;;5028107;28;20028;-81
2022/07/01 01:20:03;;;;;;;5.25;1.30;;;19.80;94.20;;;;;;5008632;28;20030;-82
2022/07/01 01:22:29;;;;;;;2.15;0.77;;;19.70;93.70;;;;;;5027022;28;20253;-82
2022/07/01 01:24:57;;;;;;;2.17;0.85;;;19.70;93.90;;;;;;5025062;28;20033;-81
2022/07/01 01:27:23;;;;;;;2.88;0.90;;;19.60;93.50;;;;;;5025532;28;20033;-82
2022/07/01 01:29:49;;;;;;;4.35;0.82;;;19.60;93.70;;;;;;5025108;28;20030;-81
2022/07/01 01:32:15;;;;;;;1.65;1.27;;;19.60;93.60;;;;;;5026753;28;20034;-81
2022/07/01 01:34:41;;;;;;;2.60;1.08;;;19.60;93.40;;;;;;5039301;28;20036;-82
2022/07/01 01:37:07;;;;;;;1.85;0.80;;;19.60;93.30;;;;;;5044626;28;20040;-82
2022/07/01 01:39:36;;;;;;;0.50;0.50;;;19.60;93.40;;;;;;5046651;28;20030;-81
2022/07/01 01:42:03;;;;;;;0.47;0.40;;;19.60;93.10;;;;;;5044694;28;20013;-82
2022/07/01 01:44:28;;;;;;;1.02;0.57;;;19.60;93.30;;;;;;5031401;28;20095;-81
2022/07/01 01:46:54;;;;;;;2.60;0.75;;;19.50;93.40;;;;;;5024542;28;20026;-82
2022/07/01 01:49:19;;;;;;;2.00;0.60;;;19.40;93.90;;;;;;5025858;28;20038;-81
2022/07/01 01:51:45;;;;;;;0.45;0.40;;;19.40;94.20;;;;;;5025421;28;20029;-81
2022/07/01 01:54:11;;;;;;;0.60;0.60;;;19.20;94.60;;;;;;5025373;28;20022;-82
2022/07/01 01:56:36;;;;;;;0.93;0.52;;;19.10;94.90;;;;;;5026717;28;20026;-82
2022/07/01 01:59:04;;;;;;;0.95;0.50;;;19.10;95.20;;;;;;5029474;28;20116;-81
2022/07/01 02:01:30;;;;;;;0.40;0.40;;;19.00;95.70;;;;;;5033352;28;20018;-82
2022/07/01 02:03:56;;;;;;;0.57;0.40;;;18.90;95.80;;;;;;5032241;28;20032;-82
2022/07/01 02:06:22;;;;;;;0.80;0.60;;;18.90;96.10;;;;;;5024853;28;20598;-82
2022/07/01 02:08:49;;;;;;;0.77;0.50;;;18.80;96.20;;;;;;5024525;28;20026;-82
2022/07/01 02:11:15;;;;;;;0.93;0.80;;;18.80;96.60;;;;;;5007047;28;20026;-82
2022/07/01 02:13:40;;;;;;;1.58;0.70;;;18.80;96.70;;;;;;5025302;28;20041;-82
2022/07/01 02:16:06;;;;;;;0.80;0.80;;;18.80;96.60;;;;;;5024847;28;20026;-82
2022/07/01 02:18:32;;;;;;;0.60;0.60;;;18.90;96.70;;;;;;5007758;28;20136;-81
2022/07/01 02:20:58;;;;;;;0.70;0.70;;;18.90;96.90;;;;;;5024538;28;20026;-82
2022/07/01 02:23:24;;;;;;;1.55;0.60;;;18.90;96.70;;;;;;5007757;28;20054;-83
2022/07/01 02:25:50;;;;;;;0.70;0.70;;;18.90;96.90;;;;;;5025428;28;20041;-82
2022/07/01 02:28:16;;;;;;;0.40;0.40;;;18.90;96.80;;;;;;5006938;28;20049;-82
2022/07/01 02:30:42;;;;;;;0.47;0.47;;;18.90;96.90;;;;;;5025415;28;20114;-82
2022/07/01 02:33:08;;;;;;;0.50;0.50;;;18.90;97.10;;;;;;5025526;28;20032;-83
2022/07/01 02:35:36;;;;;;;2.60;0.73;;;18.90;97.20;;;;;;5030300;28;20034;-81
2022/07/01 02:38:03;;;;;;;4.85;0.98;;;18.90;97.30;;;;;;5033903;28;20014;-83
2022/07/01 02:40:29;;;;;;;0.55;0.40;;;18.90;97.20;;;;;;5035127;28;20038;-82
2022/07/01 02:42:55;;;;;;;1.15;0.77;;;18.90;97.20;;;;;;5025301;28;20030;-82
2022/07/01 02:45:21;;;;;;;1.33;0.60;;;19.00;97.20;;;;;;5026879;28;20029;-82
2022/07/01 02:47:47;;;;;;;0.85;0.70;;;19.00;96.90;;;;;;5007420;28;20010;-83
2022/07/01 02:50:13;;;;;;;0.35;0.35;;;18.90;97.10;;;;;;5025000;28;20041;-82
2022/07/01 02:52:42;;;;;;;0.32;0.32;;;18.90;97.50;;;;;;5026716;28;20020;-82
2022/07/01 02:55:09;;;;;;;0.40;0.40;;;18.90;97.50;;;;;;5024495;28;20041;-81
2022/07/01 02:57:36;;;;;;;1.55;0.73;;;19.00;97.60;;;;;;5041007;28;20021;-82
2022/07/01 03:00:05;;;;;;;1.02;0.55;;;18.90;97.90;;;;;;5025174;28;20046;-82
2022/07/01 03:02:31;;;;;;;1.02;0.82;;;18.90;97.70;;;;;;5024931;28;20021;-82
2022/07/01 03:04:58;;;;;;;1.38;0.50;;;18.90;97.70;;;;;;5042839;28;20171;-82
2022/07/01 03:07:24;;;;;;;0.73;0.57;;;18.90;97.70;;;;;;5042425;28;20041;-81
2022/07/01 03:09:50;;;;;;;0.85;0.70;;;18.90;97.70;;;;;;5024846;28;20083;-81
2022/07/01 03:12:24;;;;;;;0.50;0.50;;;18.80;97.70;;;;;;5044655;28;20026;-81
2022/07/01 03:14:58;;;;;;;0.47;0.47;;;18.80;97.90;;;;;;5045274;28;20089;-82
2022/07/01 03:17:28;;;;;;;1.85;0.85;;;18.80;98.10;;;;;;5034473;28;20081;-82
2022/07/01 03:19:55;;;;;;;1.60;0.60;;;18.80;98.20;;;;;;5035439;28;20109;-82
2022/07/01 03:22:21;;;;;;;0.55;0.55;;;18.80;98.10;;;;;;5035552;28;20021;-82
2022/07/01 03:24:48;;;;;;;1.45;0.35;;;18.80;98.20;;;;;;5007531;28;20375;-82
2022/07/01 03:27:15;;;;;;;0.60;0.60;;;18.80;98.00;;;;;;5025028;28;20042;-83
2022/07/01 03:29:41;;;;;;;1.67;1.55;;;18.80;98.10;;;;;;5008166;28;20054;-82
2022/07/01 03:32:09;;;;;;;0.85;0.80;;;18.90;97.60;;;;;;5031596;28;20029;-82
2022/07/01 03:34:39;;;;;;;0.85;0.60;;;18.90;97.60;;;;;;5012917;28;20033;-81
2022/07/01 03:37:07;;;;;;;0.70;0.70;;;18.80;97.80;;;;;;5010765;28;20398;-82
2022/07/01 03:39:34;;;;;;;0.65;0.60;;;18.90;97.80;;;;;;5027089;28;20036;-81
2022/07/01 03:42:01;;;;;;;0.77;0.50;;;18.90;98.00;;;;;;5025429;28;20033;-82
2022/07/01 03:44:27;;;;;;;1.38;0.85;;;18.90;97.90;;;;;;5028343;28;20006;-82
2022/07/01 03:46:53;;;;;;;1.38;0.50;;;18.90;98.00;;;;;;5030593;28;20025;-81
2022/07/01 03:49:22;;;;;;;0.50;0.50;;;18.90;98.10;;;;;;5037914;28;20094;-83
2022/07/01 03:51:49;;;;;;;0.65;0.65;;;18.90;98.20;;;;;;5033219;28;20089;-81
2022/07/01 03:54:30;;;;;;;0.75;0.75;;;18.90;98.30;;;;;;5017051;28;20045;-82
2022/07/01 03:57:07;;;;;;;2.95;1.05;;;18.90;98.40;;;;;;5020310;28;20037;-81
2022/07/01 04:02:02;;;;;;;1.27;0.60;;;18.80;98.60;;;;;;5075361;22;20057;-80
2022/07/01 04:04:28;;;;;;;0.88;0.60;;;18.90;98.60;;;;;;5016348;28;20468;-77
2022/07/01 04:06:57;;;;;;;0.70;0.70;;;18.90;98.70;;;;;;5008916;28;20076;-78
2022/07/01 04:09:24;;;;;;;0.90;0.60;;;19.00;98.70;;;;;;5016033;28;20038;-80
2022/07/01 04:11:50;;;;;;;1.75;0.82;;;19.00;98.60;;;;;;5007440;28;20109;-80
2022/07/01 04:14:16;;;;;;;2.20;0.80;;;19.10;98.30;;;;;;4988409;28;20109;-79
2022/07/01 04:16:44;;;;;;;0.63;0.60;;;19.00;98.20;;;;;;5010226;28;20053;-79
2022/07/01 04:19:10;;;;;;;0.80;0.80;;;19.00;98.40;;;;;;5003422;28;20026;-78
2022/07/01 04:24:22;;;;;;;0.65;0.55;;;19.00;98.50;;;;;;5031614;28;20529;-77
2022/07/01 04:26:49;;;;;;;1.00;0.77;;;18.90;98.30;;;;;;5018007;28;20022;-77
2022/07/01 04:29:14;;;;;;;0.60;0.60;;;18.90;98.40;;;;;;5004581;28;20029;-79
2022/07/01 04:31:40;;;;;;;0.75;0.75;;;18.90;98.50;;;;;;5004801;28;20031;-78
2022/07/01 04:34:07;;;;;;;1.05;0.80;;;18.90;98.80;;;;;;5008879;28;20010;-78
2022/07/01 04:36:34;;;;;;;1.15;0.55;;;19.00;98.50;;;;;;5014372;28;20062;-77
2022/07/01 04:39:00;;;;;;;2.80;0.80;;;19.10;98.30;;;;;;5016659;28;20022;-77
2022/07/01 04:44:10;;;;;;;0.80;0.70;;;19.30;97.50;;;;;;5003611;28;20090;-78
2022/07/01 04:46:36;;;;;;;0.70;0.70;;;19.30;97.40;;;;;;5005668;28;20603;-78
2022/07/01 04:49:02;;;;;;;0.60;0.60;;;19.30;97.50;;;;;;5014462;28;20045;-79
2022/07/01 04:51:28;;;;;;;1.67;0.85;;;19.30;97.50;;;;;;5024251;28;20049;-78
2022/07/01 04:53:54;;;;;;;0.55;0.40;;;19.20;97.10;;;;;;5023985;28;20034;-78
2022/07/01 04:56:20;;;;;;;1.38;0.63;;;19.30;97.10;;;;;;5005660;28;20367;-78
2022/07/01 04:58:46;;;;;;;0.50;0.50;;;19.30;96.60;;;;;;5022269;28;20026;-78
2022/07/01 05:01:12;;;;;;;0.70;0.70;;;19.30;96.50;;;;;;5014317;28;20049;-78
2022/07/01 05:03:38;;;;;;;0.70;0.70;;;19.30;96.50;;;;;;4992000;28;20058;-79
2022/07/01 05:06:04;;;;;;;0.60;0.60;;;19.20;96.60;;;;;;5008889;28;20057;-78
2022/07/01 05:08:30;;;;;;;0.75;0.70;;;19.20;96.70;;;;;;5006582;28;20051;-79
2022/07/01 05:10:55;;;;;;;0.80;0.60;;;19.20;96.80;;;;;;5004631;28;20030;-78
2022/07/01 05:13:21;;;;;;;0.68;0.60;;;19.20;96.60;;;;;;5021575;28;20097;-79
2022/07/01 05:15:47;;;;;;;1.30;0.50;;;19.20;96.50;;;;;;5017038;28;20029;-83
2022/07/01 05:23:41;;;;;;;0.60;0.60;;;19.30;96.10;;;;;;4991099;28;20038;-82
2022/07/01 05:26:07;;;;;;;0.65;0.50;;;19.40;95.80;;;;;;5002889;28;20471;-82
2022/07/01 05:28:32;;;;;;;0.95;0.90;;;19.60;95.70;;;;;;5012274;28;20105;-82
2022/07/01 05:30:58;;;;;;;0.85;0.85;;;19.80;95.30;;;;;;5031618;28;20041;-83
2022/07/01 05:33:27;;;;;;;0.70;0.70;;;20.00;94.80;;;;;;5031337;28;20025;-81
2022/07/01 05:35:54;;;;;;;3.40;0.77;;;20.10;94.00;;;;;;5030106;28;20025;-83
2022/07/01 05:38:19;;;;;;;0.57;0.57;;;20.20;93.50;;;;;;4996529;28;20055;-82
2022/07/01 05:40:45;;;;;;;0.77;0.75;;;20.20;93.50;;;;;;5010435;28;20105;-83
2022/07/01 05:43:11;;;;;;;0.45;0.45;;;20.20;93.80;;;;;;4990546;28;20054;-81
2022/07/01 05:45:37;;;;;;;0.40;0.40;;;20.20;93.90;;;;;;4986238;28;20027;-83
2022/07/01 05:48:03;;;;;;;0.95;0.80;;;20.40;93.70;;;;;;4993027;28;20032;-83
2022/07/01 05:50:28;;;;;;;5.22;0.73;;;20.40;93.20;;;;;;5021507;28;20029;-83
2022/07/01 05:52:54;;;;;;;0.80;0.80;;;20.30;93.40;;;;;;5017214;28;20466;-82
2022/07/01 05:55:20;;;;;;;0.95;0.85;;;20.30;93.30;;;;;;5004268;28;20049;-82
2022/07/01 05:57:46;;;;;;;1.20;0.80;;;20.20;93.20;;;;;;5004045;28;20038;-83
2022/07/01 06:00:12;;;;;;;1.42;1.33;;;20.10;93.60;;;;;;4989374;28;20034;-83
2022/07/01 06:02:38;;;;;;;4.10;1.13;;;20.10;94.10;;;;;;5018340;28;20171;-82
2022/07/01 06:05:05;;;;;;;0.90;0.90;;;20.00;94.20;;;;;;5006120;28;20026;-82
2022/07/01 06:07:31;;;;;;;2.72;0.60;;;20.00;94.40;;;;;;5025274;28;20030;-81
2022/07/01 06:09:57;;;;;;;0.93;0.93;;;20.10;94.60;;;;;;5005712;28;20060;-82
2022/07/01 06:12:22;;;;;;;1.90;0.95;;;20.20;94.00;;;;;;5022992;28;20033;-82
2022/07/01 06:14:48;;;;;;;2.60;0.90;;;20.60;93.60;;;;;;5007740;28;20022;-83
2022/07/01 06:17:15;;;;;;;0.90;0.90;;;23.50;90.40;;;;;;5023677;28;20028;-83
2022/07/01 06:19:40;;;;;;;0.75;0.75;;;26.80;79.60;;;;;;4994024;28;20038;-82
2022/07/01 06:22:07;;;;;;;0.60;0.60;;;29.10;68.70;;;;;;5028513;28;20022;-83
2022/07/01 06:24:32;;;;;;;0.73;0.73;;;29.00;62.60;;;;;;5025526;28;20021;-82
2022/07/01 06:26:59;;;;;;;1.85;0.77;;;28.90;60.70;;;;;;5007524;28;20042;-81
2022/07/01 06:29:27;;;;;;;1.85;0.60;;;27.30;61.70;;;;;;5025652;28;20014;-81
2022/07/01 06:31:53;;;;;;;1.40;0.60;;;25.60;67.10;;;;;;5009492;28;20022;-82
2022/07/01 06:34:21;;;;;;;3.00;0.68;;;24.20;71.40;;;;;;5013688;28;20021;-81
2022/07/01 06:36:46;;;;;;;0.52;0.52;;;23.20;75.20;;;;;;5033728;28;20025;-82
2022/07/01 06:39:12;;;;;;;0.70;0.70;;;22.50;78.00;;;;;;5022232;28;20049;-83
2022/07/01 06:41:38;;;;;;;2.95;0.80;;;21.90;82.50;;;;;;5055508;22;20083;-86
2022/07/01 06:44:06;;;;;;;0.98;0.80;;;21.30;85.60;;;;;;5028964;28;20041;-85
2022/07/01 06:46:32;;;;;;;0.88;0.70;;;20.80;88.10;;;;;;5024420;28;20029;-85
2022/07/01 06:48:59;;;;;;;1.33;0.80;;;20.50;90.00;;;;;;5024688;28;20025;-84
2022/07/01 06:51:25;;;;;;;0.73;0.73;;;20.20;90.90;;;;;;5023977;28;20022;-85
2022/07/01 06:53:51;;;;;;;1.85;0.50;;;20.00;91.80;;;;;;5022422;28;20021;-86
2022/07/01 06:56:17;;;;;;;0.98;0.85;;;19.90;92.00;;;;;;5004035;28;20029;-86
2022/07/01 06:58:43;;;;;;;1.02;0.90;;;19.80;92.70;;;;;;5023197;28;20022;-85
2022/07/01 07:01:10;;;;;;;1.15;1.02;;;19.60;93.00;;;;;;5021371;28;20394;-86
2022/07/01 07:03:36;;;;;;;3.50;0.90;;;19.60;92.80;;;;;;5003841;28;20026;-82
2022/07/01 07:06:03;;;;;;;1.13;0.77;;;19.60;93.10;;;;;;5022169;28;20032;-85
2022/07/01 07:08:31;;;;;;;2.50;0.70;;;19.60;93.50;;;;;;5020291;28;20022;-83
2022/07/01 07:10:57;;;;;;;0.80;0.80;;;19.60;93.40;;;;;;5003389;28;20033;-85
2022/07/01 07:13:23;;;;;;;2.90;0.80;;;19.70;93.20;;;;;;5022729;28;20034;-86
2022/07/01 07:15:49;;;;;;;1.00;0.80;;;20.00;92.60;;;;;;5003899;28;20052;-85
2022/07/01 07:18:15;;;;;;;1.17;0.98;;;20.20;92.20;;;;;;5015237;28;20034;-84
2022/07/01 07:20:41;;;;;;;1.10;0.80;;;20.50;91.50;;;;;;5015993;28;20085;-85
2022/07/01 07:23:06;;;;;;;1.65;0.93;;;20.70;91.30;;;;;;5019876;28;20030;-85
2022/07/01 07:25:32;;;;;;;1.35;0.90;;;20.90;91.20;;;;;;5017517;28;20065;-85
2022/07/01 07:27:57;;;;;;;3.17;1.05;;;21.00;90.80;;;;;;5008833;28;20050;-86
2022/07/01 07:30:23;;;;;;;2.60;1.23;;;21.10;90.30;;;;;;5012827;28;20031;-81
2022/07/01 07:32:49;;;;;;;1.75;1.10;;;21.10;90.40;;;;;;5009786;28;20036;-83
2022/07/01 07:35:15;;;;;;;2.38;1.48;;;20.90;90.70;;;;;;5010067;28;20045;-83
2022/07/01 07:37:42;;;;;;;3.22;1.05;;;20.70;91.30;;;;;;4984992;28;20070;-82
2022/07/01 07:40:11;;;;;;;1.13;1.02;;;20.60;91.50;;;;;;5002068;28;20026;-84
2022/07/01 07:42:38;;;;;;;2.78;1.23;;;20.30;92.40;;;;;;5025357;28;20030;-81
2022/07/01 07:45:08;;;;;;;3.63;1.35;;;19.90;93.20;;;;;;5015591;28;20025;-85
2022/07/01 07:47:35;;;;;;;1.50;1.40;;;19.70;94.10;;;;;;5019157;28;20029;-85
2022/07/01 07:50:02;;;;;;;1.55;1.45;;;19.50;94.90;;;;;;5016761;28;20026;-84
2022/07/01 07:52:27;;;;;;;2.03;1.80;;;19.30;95.40;;;;;;5022333;28;20021;-85
2022/07/01 07:54:53;;;;;;;1.77;1.65;;;19.20;95.90;;;;;;5005062;28;20129;-84
2022/07/01 07:57:19;;;;;;;2.05;1.90;;;19.20;96.20;;;;;;5008174;28;20038;-85
2022/07/01 07:59:44;;;;;;;3.60;2.33;;;19.10;96.50;;;;;;5004177;28;20027;-84
2022/07/01 08:02:10;;;;;;;2.83;2.30;;;19.10;96.60;;;;;;5010532;28;20034;-83
2022/07/01 08:04:36;;;;;;;2.72;2.22;;;19.10;97.10;;;;;;5023500;28;20074;-84
2022/07/01 08:07:02;;;;;;;4.22;2.42;;;19.10;96.90;;;;;;5018314;28;20017;-85
2022/07/01 08:09:29;;;;;;;5.00;2.45;;;19.00;96.90;;;;;;5017061;28;20101;-83
2022/07/01 08:11:55;;;;;;;2.97;2.40;;;18.90;97.10;;;;;;4999819;28;20078;-82
2022/07/01 08:14:21;;;;;;;3.67;2.60;;;18.70;97.30;;;;;;4999737;28;20069;-83
2022/07/01 08:16:46;;;;;;;6.47;2.70;;;18.40;98.40;;;;;;5016289;28;20022;-82
2022/07/01 08:19:12;;;;;;;8.77;2.45;;;18.20;98.80;;;;;;5021660;28;20053;-82
2022/07/01 08:21:38;;;;;;;4.25;2.03;;;18.00;99.00;;;;;;5018518;28;20038;-80
2022/07/01 08:24:06;;;;;;;4.50;1.77;;;17.70;99.00;;;;;;5027799;28;20022;-81
2022/07/01 08:26:32;;;;;;;0.47;0.47;;;17.40;99.90;;;;;;5030030;28;20030;-82
2022/07/01 08:28:57;;;;;;;0.85;0.60;;;17.10;98.80;;;;;;5032401;28;20029;-81
2022/07/01 08:31:23;;;;;;;1.05;0.80;;;16.40;99.90;;;;;;5035300;28;20121;-82
2022/07/01 08:33:48;;;;;;;1.27;0.73;;;16.00;99.90;;;;;;5020366;28;20033;-80
2022/07/01 08:36:15;;;;;;;1.02;0.73;;;15.60;99.90;;;;;;5039158;28;20030;-82
2022/07/01 08:38:42;;;;;;;4.68;1.35;;;15.30;99.90;;;;;;5013234;28;20030;-82
2022/07/01 08:41:07;;;;;;;0.80;0.80;;;15.10;99.90;;;;;;5032166;28;20037;-81
2022/07/01 08:43:34;;;;;;;1.33;1.00;;;15.00;99.90;;;;;;5035993;28;20049;-84
2022/07/01 08:46:01;;;;;;;1.90;0.98;;;14.80;99.90;;;;;;5032074;28;20025;-83
2022/07/01 08:48:29;;;;;;;2.53;1.10;;;14.70;99.90;;;;;;5014909;28;20053;-83
2022/07/01 08:50:55;;;;;;;0.90;0.90;;;14.70;99.90;;;;;;5032607;28;20017;-83
2022/07/01 08:53:21;;;;;;;3.15;0.90;;;14.70;99.90;;;;;;5030136;28;20130;-83
2022/07/01 08:58:32;;;;;;;1.85;1.75;;;14.80;99.90;;;;;;5008466;28;20036;-84
2022/07/01 09:01:17;;;;;;;2.85;0.88;;;14.80;99.90;;;;;;5006154;28;20097;-82
2022/07/01 09:03:45;;;;;;;0.95;0.77;;;14.90;99.90;;;;;;5017826;28;20023;-82
2022/07/01 09:06:30;;;;;;;1.50;1.00;;;15.00;99.90;;;;;;4988597;28;20026;-83
2022/07/01 09:09:13;;;;;;;0.47;0.47;;;15.10;99.90;;;;;;4988329;28;20026;-85
2022/07/01 09:11:54;;;;;;;4.68;0.98;;;15.30;99.90;;;;;;4994017;28;20018;-84
2022/07/01 09:14:30;;;;;;;1.30;0.90;;;15.50;99.90;;;;;;5020128;28;20119;-82
2022/07/01 09:16:58;;;;;;;0.57;0.52;;;15.70;99.90;;;;;;5007288;28;20131;-83
2022/07/01 09:19:25;;;;;;;1.80;0.75;;;15.80;99.90;;;;;;5018235;28;20040;-83
2022/07/01 09:21:52;;;;;;;0.82;0.80;;;15.90;99.90;;;;;;5022971;28;20030;-84
2022/07/01 09:24:29;;;;;;;5.10;0.90;;;15.90;99.90;;;;;;5004325;28;20096;-83
2022/07/01 09:27:12;;;;;;;0.65;0.65;;;15.80;99.90;;;;;;5004628;28;20054;-86
2022/07/01 09:29:43;;;;;;;1.75;0.70;;;15.80;99.90;;;;;;5016181;28;20018;-83
2022/07/01 09:32:11;;;;;;;1.08;0.50;;;15.80;99.90;;;;;;5005092;28;20045;-83
2022/07/01 09:34:45;;;;;;;3.60;0.70;;;15.80;99.90;;;;;;4991763;28;20374;-83
2022/07/01 09:37:13;;;;;;;1.05;0.68;;;15.70;99.90;;;;;;5020447;28;20018;-83
2022/07/01 09:39:47;;;;;;;1.77;1.00;;;15.70;99.90;;;;;;5018612;28;20022;-83
2022/07/01 09:42:14;;;;;;;0.63;0.55;;;15.50;99.90;;;;;;5012537;28;20497;-84
2022/07/01 09:45:02;;;;;;;2.78;0.90;;;15.50;99.90;;;;;;5006153;28;20088;-83
2022/07/01 09:47:29;;;;;;;3.05;0.75;;;15.40;99.90;;;;;;5015746;28;20027;-81
2022/07/01 09:49:56;;;;;;;0.63;0.63;;;15.40;99.90;;;;;;5010647;28;20038;-83
2022/07/01 09:52:22;;;;;;;1.60;1.35;;;15.40;99.90;;;;;;5011426;28;20034;-84
2022/07/01 09:54:50;;;;;;;1.63;0.60;;;15.50;99.90;;;;;;4991748;28;20081;-82
2022/07/01 09:57:17;;;;;;;1.65;1.30;;;15.50;99.90;;;;;;5015433;28;20033;-82
2022/07/01 09:59:43;;;;;;;2.00;1.00;;;15.50;99.90;;;;;;5024562;28;20404;-83
2022/07/01 10:02:09;;;;;;;0.90;0.65;;;15.50;99.90;;;;;;5006063;28;20029;-84
2022/07/01 10:04:38;;;;;;;1.00;0.63;;;15.60;99.90;;;;;;5022371;28;20026;-83
2022/07/01 10:07:16;;;;;;;0.68;0.52;;;15.70;99.90;;;;;;5000961;28;20042;-81
2022/07/01 10:10:03;;;;;;;1.27;0.68;;;15.70;99.90;;;;;;5031248;28;20056;-81
2022/07/01 10:12:54;;;;;;;1.50;0.88;;;15.80;99.90;;;;;;5018050;28;20034;-82
2022/07/01 10:15:20;;;;;;;1.15;0.75;;;15.80;99.90;;;;;;5023806;28;20094;-81
2022/07/01 10:17:52;;;;;;;1.20;1.10;;;15.90;99.90;;;;;;4995934;28;20494;-79
2022/07/01 10:20:30;;;;;;;1.00;0.82;;;15.90;99.90;;;;;;4997968;28;20451;-81
2022/07/01 10:23:07;;;;;;;1.15;0.70;;;15.90;99.90;;;;;;5009815;28;20038;-81
2022/07/01 10:25:43;;;;;;;2.97;0.70;;;16.00;99.90;;;;;;4987344;28;20034;-81
2022/07/01 10:28:19;;;;;;;1.83;0.50;;;16.10;99.90;;;;;;4992283;28;20018;-83
2022/07/01 10:30:53;;;;;;;0.82;0.50;;;16.20;99.90;;;;;;5017442;28;20125;-81
2022/07/01 10:33:39;;;;;;;1.70;0.50;;;16.20;99.90;;;;;;5000354;28;20113;-81
2022/07/01 10:36:17;;;;;;;0.52;0.52;;;16.20;99.90;;;;;;4982564;28;20042;-82
2022/07/01 10:39:06;;;;;;;1.00;0.50;;;16.30;99.90;;;;;;4981900;28;20053;-82
2022/07/01 10:41:38;;;;;;;0.60;0.60;;;16.20;99.90;;;;;;4980728;28;20501;-81
2022/07/01 10:44:07;;;;;;;1.60;0.77;;;16.20;99.90;;;;;;5009479;28;20041;-82
2022/07/01 10:46:41;;;;;;;1.77;0.80;;;16.30;99.90;;;;;;5003901;28;20022;-83
2022/07/01 10:49:08;;;;;;;0.73;0.73;;;16.30;99.90;;;;;;5001322;28;20014;-82
2022/07/01 10:51:47;;;;;;;1.13;1.05;;;16.30;99.90;;;;;;5000977;28;20026;-82
2022/07/01 10:54:33;;;;;;;1.02;0.70;;;16.30;99.90;;;;;;5018604;28;20540;-82
2022/07/01 10:57:18;;;;;;;11.32;1.42;;;16.30;99.90;;;;;;5018462;28;20030;-82
2022/07/01 10:59:52;;;;;;;2.30;0.60;;;16.20;99.90;;;;;;5004267;28;20054;-83
2022/07/01 11:02:27;;;;;;;0.88;0.80;;;16.10;99.90;;;;;;4999632;28;20049;-81
2022/07/01 11:04:56;;;;;;;0.80;0.80;;;16.10;99.90;;;;;;4999820;28;20030;-81
2022/07/01 11:07:25;;;;;;;1.00;0.70;;;16.20;99.90;;;;;;4981889;28;20022;-82
2022/07/01 11:09:51;;;;;;;0.80;0.80;;;16.10;99.90;;;;;;5000213;28;20566;-82
2022/07/01 11:12:24;;;;;;;0.70;0.70;;;16.10;99.90;;;;;;4999911;28;20023;-82
2022/07/01 11:14:51;;;;;;;3.67;0.60;;;16.10;99.90;;;;;;5003358;28;20030;-83
2022/07/01 11:17:20;;;;;;;2.00;0.50;;;16.10;99.90;;;;;;5009590;28;20025;-83
2022/07/01 11:19:52;;;;;;;1.27;0.70;;;16.10;99.90;;;;;;5020584;28;20022;-82
2022/07/01 11:22:23;;;;;;;0.50;0.50;;;16.00;99.90;;;;;;5019525;28;20442;-82
2022/07/01 11:24:57;;;;;;;1.58;0.70;;;15.90;99.90;;;;;;5019499;28;20125;-81
2022/07/01 11:27:24;;;;;;;1.58;0.88;;;15.80;99.90;;;;;;5024644;28;20040;-81
2022/07/01 11:29:56;;;;;;;1.30;0.98;;;15.90;99.90;;;;;;5003405;28;20030;-83
2022/07/01 11:32:30;;;;;;;1.03;0.90;;;16.00;99.90;;;;;;5018513;28;20022;-83
2022/07/01 11:34:57;;;;;;;1.17;1.08;;;15.90;99.90;;;;;;5017841;28;20030;-81
2022/07/01 11:40:13;;;;;;;0.93;0.90;;;15.80;99.90;;;;;;5017857;28;20076;-81
2022/07/01 11:42:40;;;;;;;1.38;1.00;;;15.80;99.90;;;;;;5001001;28;20025;-82
2022/07/01 11:45:06;;;;;;;1.52;0.82;;;15.90;99.90;;;;;;5019521;28;20023;-82
2022/07/01 11:47:32;;;;;;;0.90;0.90;;;16.00;99.90;;;;;;4989976;28;20027;-82
2022/07/01 11:49:59;;;;;;;1.05;1.05;;;16.10;99.90;;;;;;5006558;28;20128;-82
2022/07/01 11:52:26;;;;;;;2.42;0.90;;;16.20;99.90;;;;;;5025845;28;20010;-83
2022/07/01 11:54:55;;;;;;;1.45;0.80;;;16.30;99.90;;;;;;5017990;28;20064;-83
2022/07/01 11:57:24;;;;;;;1.27;0.93;;;16.40;99.90;;;;;;4999022;28;20017;-82
2022/07/01 11:59:56;;;;;;;1.67;1.15;;;16.30;99.90;;;;;;5015807;28;20022;-82
2022/07/01 12:02:24;;;;;;;2.00;0.80;;;15.90;99.90;;;;;;4996890;28;20023;-82
2022/07/01 12:04:50;;;;;;;2.78;1.00;;;15.60;99.90;;;;;;4984469;28;20031;-81
2022/07/01 12:07:21;;;;;;;0.90;0.90;;;15.40;99.90;;;;;;5012223;28;20037;-82
2022/07/01 12:09:47;;;;;;;0.80;0.80;;;15.40;99.90;;;;;;5023247;28;20029;-83
2022/07/01 12:12:21;;;;;;;1.08;0.90;;;15.40;99.90;;;;;;5017805;28;20027;-82
2022/07/01 12:14:52;;;;;;;1.98;0.80;;;15.60;99.90;;;;;;4987017;28;20026;-82
2022/07/01 12:17:18;;;;;;;2.50;1.00;;;15.90;99.90;;;;;;5007991;28;20025;-82
2022/07/01 12:19:47;;;;;;;1.50;0.93;;;16.10;99.90;;;;;;4986181;28;20046;-82
2022/07/01 12:22:19;;;;;;;1.02;0.93;;;16.20;99.90;;;;;;4987158;28;20034;-82
2022/07/01 12:24:46;;;;;;;0.73;0.60;;;16.20;99.90;;;;;;4989419;28;20209;-81
2022/07/01 12:27:12;;;;;;;0.68;0.68;;;16.20;99.90;;;;;;5015238;28;20041;-82
2022/07/01 12:29:46;;;;;;;0.80;0.65;;;16.10;99.90;;;;;;5026876;28;20129;-83
2022/07/01 12:32:14;;;;;;;0.85;0.85;;;15.90;99.90;;;;;;5028095;28;20027;-82
2022/07/01 12:37:45;;;;;;;1.38;1.27;;;15.90;99.90;;;;;;5026040;28;20032;-83
2022/07/01 12:40:22;;;;;;;0.90;0.85;;;16.10;99.90;;;;;;5055991;23;20108;-80
2022/07/01 12:42:48;;;;;;;0.80;0.80;;;16.30;99.90;;;;;;5016492;28;20030;-82
2022/07/01 12:45:23;;;;;;;0.70;0.70;;;16.20;99.90;;;;;;5008335;28;20033;-81
2022/07/01 12:47:54;;;;;;;1.48;1.10;;;16.10;99.90;;;;;;5022814;28;20497;-82
2022/07/01 12:50:25;;;;;;;1.60;1.50;;;16.00;99.90;;;;;;5022265;28;20034;-80
2022/07/01 12:53:04;;;;;;;2.35;2.13;;;15.80;99.90;;;;;;5010063;28;20536;-80
2022/07/01 12:55:34;;;;;;;1.83;1.73;;;15.70;99.90;;;;;;5009580;28;20034;-80
2022/07/01 12:58:01;;;;;;;2.20;1.92;;;15.50;99.90;;;;;;5027531;28;20022;-80
2022/07/01 13:00:28;;;;;;;1.60;1.50;;;15.50;99.90;;;;;;5010914;28;20033;-81
2022/07/01 13:02:56;;;;;;;2.00;1.80;;;15.40;99.90;;;;;;5036231;28;20097;-79
2022/07/01 13:05:22;;;;;;;4.53;1.70;;;15.30;99.90;;;;;;5037119;28;20054;-79
2022/07/01 13:07:48;;;;;;;2.00;1.75;;;15.20;99.90;;;;;;5030606;28;20026;-80
2022/07/01 13:10:16;;;;;;;3.67;1.67;;;15.20;99.90;;;;;;5028302;28;20026;-81
2022/07/01 13:12:44;;;;;;;1.70;1.60;;;15.10;99.90;;;;;;5026165;28;20030;-80
2022/07/01 13:15:11;;;;;;;1.85;1.75;;;15.10;99.90;;;;;;5026087;28;20085;-79